Startpagina
METAR-TAF:

METAR-TAF

Vliegvelden :

Münster-Osnabrück, Duitsland

Flughafen Münster-Osnabrück

breedte: 52-08N, lengte: 007-42E, hoogte: 48 m

Actueel weer

Dit bericht is 27 minuten geleden gemaakt, om 18:50 UTC
Wind 2 kt uit variabele richting
Temperatuur 19°C
Vochtigheid 52%
Druk 1016 hPa
Zicht 10 km of meer
geen wolken onder 1500 m en geen cumulonimbus

METAR: EDDG 221850Z VRB02KT CAVOK 19/09 Q1016 NOSIG

Tijdstip: 21:17 (19:17 UTC)

Verwachting

Dit bericht is 2 uur en het 17 minuten geleden gemaakt, om 17:00 UTC
Verwachting geldig van 22 om 18 UTC tot 23 om 18 UTC
Wind 3 kt uit variabele richting
Zicht 10 km of meer
geen wolken onder 1500 m en geen cumulonimbus
Wijzigt naar
van 23 om 06 UTC tot 23 om 09 UTC
Wind 8 kt uit het zuidwesten
Wijzigt naar
van 23 om 10 UTC tot 23 om 13 UTC
Wind 10 kt uit het westnoordwesten

TAF: EDDG 221700Z 2218/2318 VRB03KT CAVOK BECMG 2306/2309 23008KT BECMG 2310/2313 30010KT

Waarnemingen en weersverwachtingen van meer dan 4000 vliegvelden (METAR en TAF).

De beschikbare stations zijn de gele en rode punten op de kaart.

Ga met uw muis naar het station om de naam te zien.

Klik dan om waarnemingen en weersverwachtingen te zien.

kaart wijzigen: klik op de groene knoppen met een zwart kruis om in te zoomen, op de groene knop met een streepje om uit te zoomen of op de groene pijlen voor aangrenzende kaarten.


METAR-TAF: